Time;durP1;ratioP1;P1;durP2;ratioP2;P2;SDS_P1;SDS_P2;PMS_P1;PMS_P2;Temp;Humidity;BMP_temperature;BMP_pressure;BME280_temperature;BME280_humidity;BME280_pressure;Samples;Min_cycle;Max_cycle;Signal;HPM_P1;HPM_P2
2021/03/29 00:01:40;;;;;;;12.00;4.32;;;11.50;64.30;;;;;;5069905;28;20033;-52
2021/03/29 00:04:06;;;;;;;8.95;4.88;;;11.50;64.30;;;;;;5062322;28;20028;-56
2021/03/29 00:06:33;;;;;;;9.35;4.78;;;11.50;64.30;;;;;;5070053;28;20043;-53
2021/03/29 00:08:59;;;;;;;11.02;5.28;;;11.50;64.40;;;;;;5063756;28;20051;-53
2021/03/29 00:11:25;;;;;;;9.32;4.25;;;11.50;64.40;;;;;;5068085;28;20058;-54
2021/03/29 00:13:53;;;;;;;7.97;4.53;;;11.50;64.30;;;;;;5054091;28;20112;-49
2021/03/29 00:16:20;;;;;;;10.07;4.70;;;11.50;64.10;;;;;;5055215;28;20037;-57
2021/03/29 00:18:46;;;;;;;9.32;4.40;;;11.40;64.20;;;;;;5072596;28;20032;-50
2021/03/29 00:21:12;;;;;;;11.65;4.70;;;11.50;64.40;;;;;;5033135;28;20075;-51
2021/03/29 00:23:38;;;;;;;7.53;4.47;;;11.50;64.30;;;;;;5067149;28;20041;-55
2021/03/29 00:26:06;;;;;;;9.60;4.30;;;11.50;64.40;;;;;;5069281;28;20029;-53
2021/03/29 00:28:32;;;;;;;7.55;4.05;;;11.50;64.50;;;;;;5063622;28;20060;-55
2021/03/29 00:30:57;;;;;;;11.15;4.95;;;11.50;64.40;;;;;;5064160;28;20067;-53
2021/03/29 00:33:25;;;;;;;7.95;4.07;;;11.60;64.10;;;;;;5042691;28;20446;-55
2021/03/29 00:35:51;;;;;;;8.07;3.97;;;11.50;64.30;;;;;;5058221;28;20036;-55
2021/03/29 00:38:18;;;;;;;9.50;3.92;;;11.60;64.30;;;;;;5071053;28;20093;-57
2021/03/29 00:40:50;;;;;;;9.45;4.35;;;11.50;64.20;;;;;;5055341;28;20035;-59
2021/03/29 00:43:24;;;;;;;9.07;3.80;;;11.60;64.20;;;;;;5058336;28;20033;-55
2021/03/29 00:45:51;;;;;;;9.50;4.60;;;11.60;64.20;;;;;;5066605;28;20051;-61
2021/03/29 00:48:18;;;;;;;7.85;3.75;;;11.60;64.10;;;;;;5072770;28;20190;-61
2021/03/29 00:50:55;;;;;;;10.45;4.53;;;11.50;64.20;;;;;;5043530;28;20045;-54
2021/03/29 00:53:22;;;;;;;9.05;3.97;;;11.60;64.10;;;;;;5060810;28;20040;-60
2021/03/29 00:55:49;;;;;;;10.73;4.35;;;11.60;64.00;;;;;;5073260;28;20033;-60
2021/03/29 00:58:17;;;;;;;8.02;3.67;;;11.50;64.20;;;;;;5066047;28;20110;-60
2021/03/29 01:00:58;;;;;;;9.73;4.18;;;11.50;64.50;;;;;;5053519;28;20037;-59
2021/03/29 01:03:29;;;;;;;6.60;4.10;;;11.40;64.50;;;;;;5066306;28;20032;-59
2021/03/29 01:06:06;;;;;;;10.63;4.90;;;11.50;64.50;;;;;;5073087;28;20162;-59
2021/03/29 01:08:35;;;;;;;7.78;3.75;;;11.50;64.10;;;;;;5064567;28;20041;-59
2021/03/29 01:11:04;;;;;;;11.13;4.47;;;11.60;64.20;;;;;;5053081;28;20044;-60
2021/03/29 01:13:31;;;;;;;11.55;5.40;;;11.50;64.10;;;;;;5064056;28;20036;-58
2021/03/29 01:15:59;;;;;;;8.27;3.83;;;11.50;64.10;;;;;;5071223;28;20051;-63
2021/03/29 01:18:25;;;;;;;10.50;4.88;;;11.60;64.20;;;;;;5053141;28;20036;-60
2021/03/29 01:21:09;;;;;;;10.90;4.25;;;11.60;64.80;;;;;;5068355;28;20037;-61
2021/03/29 01:23:35;;;;;;;7.28;4.07;;;11.60;64.20;;;;;;5063467;28;20510;-61
2021/03/29 01:26:16;;;;;;;11.57;4.13;;;11.60;64.10;;;;;;5068934;28;20542;-60
2021/03/29 01:28:42;;;;;;;8.10;3.95;;;11.60;64.30;;;;;;5052936;28;20056;-60
2021/03/29 01:31:08;;;;;;;8.00;4.75;;;11.60;64.20;;;;;;5071205;28;20037;-58
2021/03/29 01:33:35;;;;;;;8.30;4.43;;;11.60;64.30;;;;;;5073370;28;20115;-61
2021/03/29 01:36:02;;;;;;;9.65;4.35;;;11.60;65.20;;;;;;5057605;28;20040;-59
2021/03/29 01:38:30;;;;;;;9.18;4.30;;;11.60;65.10;;;;;;5053070;28;20027;-61
2021/03/29 01:40:59;;;;;;;12.52;7.50;;;11.70;65.20;;;;;;5066746;28;20103;-61
2021/03/29 01:43:26;;;;;;;10.02;4.60;;;11.70;65.10;;;;;;5061627;28;20112;-58
2021/03/29 01:45:54;;;;;;;7.55;4.53;;;11.60;65.10;;;;;;5035756;28;20120;-56
2021/03/29 01:48:23;;;;;;;10.13;4.50;;;11.70;65.10;;;;;;5059679;28;20040;-61
2021/03/29 01:50:52;;;;;;;9.05;4.55;;;11.70;65.20;;;;;;5072240;28;20059;-59
2021/03/29 01:53:18;;;;;;;9.75;4.13;;;11.60;65.30;;;;;;5036095;28;20115;-61
2021/03/29 01:55:44;;;;;;;8.27;4.82;;;11.50;65.50;;;;;;5035245;28;20182;-60
2021/03/29 01:58:10;;;;;;;7.63;4.00;;;11.60;65.20;;;;;;5052550;28;20056;-60
2021/03/29 02:00:39;;;;;;;9.32;4.65;;;11.60;65.20;;;;;;5052179;28;20031;-60
2021/03/29 02:03:06;;;;;;;8.75;4.25;;;11.60;64.80;;;;;;5071738;28;20044;-60
2021/03/29 02:05:33;;;;;;;10.88;4.07;;;11.70;64.50;;;;;;5065909;28;20040;-59
2021/03/29 02:08:00;;;;;;;10.52;3.92;;;11.70;64.70;;;;;;5051610;28;20026;-61
2021/03/29 02:10:29;;;;;;;10.00;4.55;;;11.70;64.80;;;;;;5051523;28;20124;-60
2021/03/29 02:12:58;;;;;;;8.95;4.43;;;11.60;64.70;;;;;;5052914;28;20392;-60
2021/03/29 02:15:26;;;;;;;10.23;4.53;;;11.50;65.20;;;;;;5046155;28;20025;-56
2021/03/29 02:17:57;;;;;;;11.05;4.93;;;11.40;65.50;;;;;;5052949;28;20434;-60
2021/03/29 02:20:30;;;;;;;9.45;4.90;;;11.50;65.40;;;;;;5071242;28;20040;-60
2021/03/29 02:22:56;;;;;;;12.23;4.82;;;11.50;65.50;;;;;;5072740;28;20067;-59
2021/03/29 02:25:24;;;;;;;10.85;4.75;;;11.40;65.50;;;;;;5065836;28;20063;-61
2021/03/29 02:27:51;;;;;;;8.85;4.82;;;11.40;65.40;;;;;;5072600;28;20116;-55
2021/03/29 02:30:21;;;;;;;11.48;4.63;;;11.50;65.40;;;;;;5055480;28;20048;-59
2021/03/29 02:32:49;;;;;;;8.68;4.60;;;11.50;65.50;;;;;;5052338;28;20085;-60
2021/03/29 02:35:15;;;;;;;9.73;4.22;;;11.50;65.70;;;;;;5052978;28;20028;-60
2021/03/29 02:37:47;;;;;;;14.55;5.78;;;11.50;65.70;;;;;;5063279;28;20086;-60
2021/03/29 02:40:14;;;;;;;8.63;4.03;;;11.50;65.60;;;;;;5051908;28;20029;-61
2021/03/29 02:42:40;;;;;;;17.20;4.70;;;11.60;65.70;;;;;;5066679;28;20040;-59
2021/03/29 02:45:09;;;;;;;10.05;4.97;;;11.50;65.70;;;;;;5071844;28;20031;-60
2021/03/29 02:47:37;;;;;;;10.18;4.35;;;11.50;65.80;;;;;;5059469;28;20044;-60
2021/03/29 02:50:08;;;;;;;8.85;4.40;;;11.50;65.90;;;;;;5052626;28;20037;-59
2021/03/29 02:52:34;;;;;;;11.30;4.97;;;11.50;66.00;;;;;;5053115;28;20037;-61
2021/03/29 02:55:00;;;;;;;9.65;4.20;;;11.50;66.00;;;;;;5052022;28;20523;-60
2021/03/29 02:57:27;;;;;;;8.75;4.38;;;11.50;66.10;;;;;;5069061;28;20036;-60
2021/03/29 02:59:54;;;;;;;6.97;3.78;;;11.50;66.10;;;;;;5071714;28;20024;-58
2021/03/29 03:02:21;;;;;;;10.55;4.40;;;11.40;66.20;;;;;;5055272;28;20079;-61
2021/03/29 03:04:47;;;;;;;9.95;4.57;;;11.40;66.10;;;;;;5059921;28;20032;-60
2021/03/29 03:07:13;;;;;;;10.73;4.70;;;11.40;66.20;;;;;;5071209;28;20113;-60
2021/03/29 03:09:41;;;;;;;9.77;4.47;;;11.50;66.10;;;;;;5052980;28;20492;-61
2021/03/29 03:12:09;;;;;;;9.65;4.47;;;11.50;66.10;;;;;;5055289;28;20565;-61
2021/03/29 03:14:35;;;;;;;9.18;4.30;;;11.40;66.20;;;;;;5073282;28;20460;-60
2021/03/29 03:17:00;;;;;;;10.07;4.22;;;11.40;66.20;;;;;;5075523;28;20127;-60
2021/03/29 03:19:26;;;;;;;11.13;4.47;;;11.40;66.10;;;;;;5073878;28;20041;-60
2021/03/29 03:21:52;;;;;;;8.32;3.88;;;11.40;66.10;;;;;;5075576;28;20048;-61
2021/03/29 03:24:17;;;;;;;10.98;4.47;;;11.40;65.90;;;;;;5071162;28;20040;-61
2021/03/29 03:26:43;;;;;;;8.93;4.72;;;11.40;66.00;;;;;;5076063;28;20031;-61
2021/03/29 03:29:08;;;;;;;10.45;4.43;;;11.40;65.90;;;;;;5064908;28;20029;-62
2021/03/29 03:31:34;;;;;;;9.95;4.28;;;11.40;66.10;;;;;;5057159;28;20040;-61
2021/03/29 03:34:00;;;;;;;10.93;4.20;;;11.40;66.20;;;;;;5067935;28;20396;-60
2021/03/29 03:36:29;;;;;;;7.85;3.80;;;11.30;66.10;;;;;;5055258;28;20406;-61
2021/03/29 03:38:55;;;;;;;10.52;4.22;;;11.40;66.00;;;;;;5060347;28;20024;-59
2021/03/29 03:41:26;;;;;;;10.38;4.03;;;11.30;66.20;;;;;;5057609;28;20525;-57
2021/03/29 03:43:54;;;;;;;10.30;4.25;;;11.30;66.10;;;;;;5073293;28;20032;-61
2021/03/29 03:46:38;;;;;;;8.25;4.10;;;11.30;65.80;;;;;;5070803;28;20116;-61
2021/03/29 03:49:15;;;;;;;9.27;3.90;;;11.30;66.00;;;;;;5051204;28;20088;-61
2021/03/29 03:51:44;;;;;;;10.73;4.22;;;11.30;66.00;;;;;;5073832;28;20123;-61
2021/03/29 03:54:10;;;;;;;9.80;4.25;;;11.40;65.90;;;;;;5075410;28;20029;-60
2021/03/29 03:56:37;;;;;;;10.65;4.30;;;11.30;66.00;;;;;;5066250;28;20120;-60
2021/03/29 03:59:04;;;;;;;11.90;3.97;;;11.40;65.70;;;;;;5055435;28;20068;-60
2021/03/29 04:01:48;;;;;;;11.90;4.20;;;11.40;65.60;;;;;;5070574;28;20040;-61
2021/03/29 04:04:14;;;;;;;8.70;4.03;;;11.40;65.70;;;;;;5074632;28;20383;-62
2021/03/29 04:06:39;;;;;;;7.93;4.22;;;11.40;65.70;;;;;;5058676;28;20047;-57
2021/03/29 04:09:05;;;;;;;10.93;4.40;;;11.40;65.90;;;;;;5054612;28;20586;-60
2021/03/29 04:11:31;;;;;;;16.83;4.93;;;11.30;66.30;;;;;;5064939;28;20116;-60
2021/03/29 04:13:56;;;;;;;11.13;4.43;;;11.30;66.00;;;;;;5055269;28;20412;-62
2021/03/29 04:16:22;;;;;;;10.85;4.15;;;11.30;66.20;;;;;;5032864;28;20577;-60
2021/03/29 04:18:47;;;;;;;7.22;3.95;;;11.30;66.00;;;;;;5074704;28;20035;-61
2021/03/29 04:21:13;;;;;;;8.75;4.60;;;11.30;65.90;;;;;;5063266;28;20033;-62
2021/03/29 04:23:38;;;;;;;10.95;4.50;;;11.40;65.80;;;;;;5053832;28;20114;-61
2021/03/29 04:26:04;;;;;;;11.77;4.55;;;11.30;66.00;;;;;;5072230;28;20040;-59
2021/03/29 04:28:30;;;;;;;9.95;4.03;;;11.30;66.20;;;;;;5065553;28;20089;-61
2021/03/29 04:30:55;;;;;;;10.43;4.40;;;11.30;66.20;;;;;;5054633;28;20040;-61
2021/03/29 04:33:22;;;;;;;11.07;4.35;;;11.40;66.10;;;;;;5061006;28;20036;-61
2021/03/29 04:35:48;;;;;;;12.15;4.20;;;11.30;66.20;;;;;;5068359;28;20124;-61
2021/03/29 04:38:14;;;;;;;11.18;4.50;;;11.30;66.30;;;;;;5054198;28;20163;-60
2021/03/29 04:40:40;;;;;;;7.55;4.93;;;11.30;66.40;;;;;;5057739;28;20052;-61
2021/03/29 04:43:05;;;;;;;15.25;5.10;;;11.20;66.60;;;;;;5074271;28;20036;-60
2021/03/29 04:45:31;;;;;;;13.60;5.38;;;11.20;66.70;;;;;;5072588;28;20036;-59
2021/03/29 04:47:57;;;;;;;17.38;5.68;;;11.20;66.50;;;;;;5054166;28;20384;-57
2021/03/29 04:50:23;;;;;;;10.07;5.10;;;11.30;66.40;;;;;;5053944;28;20025;-60
2021/03/29 04:52:50;;;;;;;13.05;4.68;;;11.20;66.50;;;;;;5055250;28;20060;-58
2021/03/29 04:55:17;;;;;;;10.13;4.93;;;11.20;66.50;;;;;;5073009;28;20153;-59
2021/03/29 04:57:43;;;;;;;12.38;4.80;;;11.20;66.50;;;;;;5073817;28;20086;-62
2021/03/29 05:00:11;;;;;;;12.02;5.13;;;11.30;66.20;;;;;;5061187;28;20111;-60
2021/03/29 05:02:37;;;;;;;8.50;4.68;;;11.40;65.50;;;;;;5074312;28;20039;-61
2021/03/29 05:05:03;;;;;;;7.80;4.55;;;11.40;65.40;;;;;;5071448;28;20037;-61
2021/03/29 05:07:28;;;;;;;13.65;6.68;;;11.40;65.20;;;;;;5068108;28;20061;-61
2021/03/29 05:09:54;;;;;;;13.75;5.38;;;11.40;65.20;;;;;;5054350;28;20068;-60
2021/03/29 05:12:22;;;;;;;12.90;5.40;;;11.30;65.30;;;;;;5040901;28;20388;-60
2021/03/29 05:14:49;;;;;;;16.13;10.80;;;11.40;65.40;;;;;;5074873;28;20028;-60
2021/03/29 05:17:15;;;;;;;14.10;6.43;;;11.40;65.50;;;;;;5074601;28;20024;-61
2021/03/29 05:19:41;;;;;;;14.00;5.60;;;11.40;65.50;;;;;;5063635;28;20473;-61
2021/03/29 05:22:08;;;;;;;12.30;5.68;;;11.50;65.50;;;;;;5059845;28;20036;-63
2021/03/29 05:24:35;;;;;;;16.60;5.60;;;11.40;65.40;;;;;;5068082;28;20111;-59
2021/03/29 05:27:01;;;;;;;10.13;5.07;;;11.40;65.70;;;;;;5068682;28;20163;-60
2021/03/29 05:29:27;;;;;;;13.90;6.10;;;11.40;65.60;;;;;;5053531;28;20036;-58
2021/03/29 05:31:57;;;;;;;10.98;5.80;;;11.40;65.80;;;;;;5057296;28;20108;-61
2021/03/29 05:34:24;;;;;;;15.35;7.05;;;11.40;65.70;;;;;;5073435;28;20558;-60
2021/03/29 05:36:49;;;;;;;20.73;12.23;;;11.40;65.70;;;;;;5056672;28;20423;-61
2021/03/29 05:39:15;;;;;;;14.77;6.90;;;11.50;65.50;;;;;;5035565;28;20021;-60
2021/03/29 05:41:42;;;;;;;12.57;6.28;;;11.40;65.50;;;;;;5067858;28;20499;-60
2021/03/29 05:44:09;;;;;;;10.95;5.38;;;11.40;65.60;;;;;;5073230;28;20043;-62
2021/03/29 05:46:41;;;;;;;16.40;6.30;;;11.40;65.40;;;;;;5059811;28;20033;-61
2021/03/29 05:49:08;;;;;;;17.08;6.45;;;11.40;65.60;;;;;;5048366;28;20045;-62
2021/03/29 05:51:38;;;;;;;16.60;8.43;;;11.40;66.00;;;;;;5057041;28;20024;-60
2021/03/29 05:54:06;;;;;;;14.93;6.32;;;11.40;66.00;;;;;;5072389;28;20063;-62
2021/03/29 05:56:34;;;;;;;13.00;5.35;;;11.40;65.80;;;;;;5053052;28;20080;-61
2021/03/29 05:59:08;;;;;;;17.38;6.72;;;11.40;65.60;;;;;;5052839;28;20484;-62
2021/03/29 06:01:43;;;;;;;19.23;5.95;;;11.50;65.50;;;;;;5053549;28;20033;-59
2021/03/29 06:04:10;;;;;;;12.98;6.10;;;11.50;65.50;;;;;;5035010;28;20437;-62
2021/03/29 06:06:35;;;;;;;15.57;6.15;;;11.50;65.50;;;;;;5052793;28;20031;-58
2021/03/29 06:09:02;;;;;;;18.13;6.72;;;11.60;65.40;;;;;;5039226;28;20045;-60
2021/03/29 06:11:29;;;;;;;18.80;7.13;;;11.60;65.40;;;;;;5073047;28;20119;-58
2021/03/29 06:14:21;;;;;;;12.35;6.05;;;11.70;65.20;;;;;;5071171;28;20036;-62
2021/03/29 06:17:09;;;;;;;14.50;6.53;;;11.70;65.30;;;;;;5072539;28;20035;-58
2021/03/29 06:19:49;;;;;;;13.65;7.22;;;11.70;65.00;;;;;;5038338;28;20017;-58
2021/03/29 06:22:19;;;;;;;17.65;6.95;;;11.60;65.20;;;;;;5072247;28;20070;-62
2021/03/29 06:25:05;;;;;;;16.58;6.85;;;11.70;65.00;;;;;;5048129;28;20025;-63
2021/03/29 06:27:47;;;;;;;23.63;7.97;;;11.80;64.80;;;;;;5035519;28;20047;-59
2021/03/29 06:30:26;;;;;;;19.75;7.18;;;11.80;64.80;;;;;;5048881;28;20028;-59
2021/03/29 06:32:54;;;;;;;20.25;7.15;;;11.70;65.20;;;;;;5052328;28;20496;-60
2021/03/29 06:35:23;;;;;;;15.95;7.20;;;11.70;65.00;;;;;;5054163;28;20041;-61
2021/03/29 06:37:49;;;;;;;17.95;6.75;;;11.70;64.80;;;;;;5071900;28;20039;-60
2021/03/29 06:40:15;;;;;;;13.77;6.07;;;11.70;65.20;;;;;;5053369;28;20028;-60
2021/03/29 06:42:41;;;;;;;18.55;7.88;;;11.70;65.20;;;;;;5051938;28;20452;-61
2021/03/29 06:45:13;;;;;;;19.55;6.80;;;11.70;65.00;;;;;;5051454;28;20056;-61
2021/03/29 06:47:39;;;;;;;17.15;6.97;;;11.70;65.40;;;;;;5059114;28;20033;-60
2021/03/29 06:50:06;;;;;;;19.70;8.63;;;11.80;65.20;;;;;;5072741;28;20044;-61
2021/03/29 06:52:34;;;;;;;18.38;6.78;;;11.70;65.30;;;;;;5074146;28;20516;-57
2021/03/29 06:55:19;;;;;;;21.20;8.48;;;11.90;65.30;;;;;;5057286;28;20051;-60
2021/03/29 06:57:57;;;;;;;27.48;7.88;;;11.90;65.10;;;;;;5073926;28;20037;-58
2021/03/29 07:00:34;;;;;;;16.70;8.27;;;11.90;65.00;;;;;;5076696;28;20033;-60
2021/03/29 07:03:05;;;;;;;16.75;7.47;;;11.90;65.00;;;;;;5076267;28;20033;-56
2021/03/29 07:05:31;;;;;;;19.25;8.10;;;12.00;64.70;;;;;;5054834;28;20029;-58
2021/03/29 07:08:02;;;;;;;18.35;8.23;;;12.00;64.60;;;;;;5052807;28;20125;-59
2021/03/29 07:10:28;;;;;;;16.83;7.82;;;12.00;64.70;;;;;;5055687;28;20078;-61
2021/03/29 07:12:55;;;;;;;15.88;7.32;;;12.10;64.60;;;;;;5073088;28;20017;-60
2021/03/29 07:15:21;;;;;;;17.75;7.75;;;12.10;64.30;;;;;;5041576;28;20504;-60
2021/03/29 07:17:48;;;;;;;22.05;8.02;;;12.20;64.40;;;;;;5071334;28;20056;-61
2021/03/29 07:20:16;;;;;;;20.15;10.52;;;12.20;64.20;;;;;;5058094;28;20045;-60
2021/03/29 07:22:43;;;;;;;21.35;7.57;;;12.30;64.20;;;;;;5051158;28;20408;-60
2021/03/29 07:25:15;;;;;;;17.90;8.93;;;12.40;64.10;;;;;;5053766;28;20041;-58
2021/03/29 07:27:44;;;;;;;15.43;7.65;;;12.40;64.40;;;;;;5054703;28;20428;-59
2021/03/29 07:30:13;;;;;;;17.98;8.20;;;12.40;64.00;;;;;;5062837;28;20396;-59
2021/03/29 07:32:39;;;;;;;16.13;7.70;;;12.50;63.60;;;;;;5071637;28;20036;-58
2021/03/29 07:35:06;;;;;;;17.52;8.25;;;12.50;63.40;;;;;;5060993;28;20369;-59
2021/03/29 07:37:44;;;;;;;17.10;8.02;;;12.60;63.30;;;;;;5051068;28;20047;-58
2021/03/29 07:40:15;;;;;;;18.38;9.25;;;12.60;62.70;;;;;;5048780;28;20059;-60
2021/03/29 07:42:42;;;;;;;16.58;8.80;;;12.70;62.40;;;;;;5059638;28;20040;-61
2021/03/29 07:45:16;;;;;;;27.38;8.75;;;12.60;62.40;;;;;;5066004;28;20036;-59
2021/03/29 07:47:51;;;;;;;16.90;8.50;;;12.50;62.60;;;;;;5059472;28;20036;-60
2021/03/29 07:50:19;;;;;;;19.58;9.25;;;12.50;62.80;;;;;;5051963;28;20033;-61
2021/03/29 07:52:50;;;;;;;18.13;8.85;;;12.50;62.40;;;;;;5052690;28;20045;-61
2021/03/29 07:55:27;;;;;;;21.20;9.55;;;12.60;61.80;;;;;;5033550;28;20025;-56
2021/03/29 07:57:53;;;;;;;18.88;9.23;;;12.70;60.90;;;;;;5052379;28;20032;-61
2021/03/29 08:00:27;;;;;;;16.60;8.70;;;12.70;60.30;;;;;;5055146;28;20116;-60
2021/03/29 08:03:21;;;;;;;20.90;9.63;;;12.70;60.30;;;;;;5074847;28;20044;-62
2021/03/29 08:05:49;;;;;;;18.10;9.23;;;12.70;60.60;;;;;;5063459;28;20108;-62
2021/03/29 08:08:27;;;;;;;16.08;8.02;;;12.80;60.50;;;;;;5055044;28;20024;-61
2021/03/29 08:11:09;;;;;;;20.42;9.77;;;12.70;61.00;;;;;;5065998;28;20491;-61
2021/03/29 08:13:53;;;;;;;18.83;9.05;;;12.80;61.30;;;;;;5054803;28;20116;-60
2021/03/29 08:16:25;;;;;;;19.80;9.25;;;12.90;60.90;;;;;;5060003;28;20089;-60
2021/03/29 08:19:14;;;;;;;21.52;9.95;;;13.00;60.80;;;;;;5069881;28;20068;-60
2021/03/29 08:21:55;;;;;;;23.83;10.13;;;13.10;60.60;;;;;;5074064;28;20107;-60
2021/03/29 08:24:21;;;;;;;19.48;9.75;;;13.20;59.90;;;;;;5064690;28;20044;-62
2021/03/29 08:26:47;;;;;;;19.10;9.10;;;13.20;60.40;;;;;;5052341;28;20024;-60
2021/03/29 08:29:15;;;;;;;17.40;10.05;;;13.30;60.60;;;;;;5059963;28;20032;-57
2021/03/29 08:32:15;;;;;;;18.65;8.20;;;13.30;60.30;;;;;;5073245;28;20032;-59
2021/03/29 08:34:44;;;;;;;22.85;9.50;;;13.40;59.40;;;;;;5036536;28;20041;-60
2021/03/29 08:37:12;;;;;;;21.67;9.40;;;13.40;60.00;;;;;;5053080;28;20029;-60
2021/03/29 08:39:49;;;;;;;22.85;10.63;;;13.40;59.60;;;;;;5064184;28;20084;-58
2021/03/29 08:42:17;;;;;;;21.02;8.85;;;13.40;59.70;;;;;;5036844;28;20033;-61
2021/03/29 08:44:45;;;;;;;17.45;8.68;;;13.40;59.50;;;;;;5071532;28;20116;-61
2021/03/29 08:47:14;;;;;;;17.67;8.55;;;13.60;59.50;;;;;;5039510;28;20060;-60
2021/03/29 08:49:41;;;;;;;14.75;8.02;;;13.70;58.70;;;;;;5053853;28;20115;-61
2021/03/29 08:52:07;;;;;;;17.45;8.20;;;13.80;59.00;;;;;;5055115;28;20048;-62
2021/03/29 08:54:33;;;;;;;18.13;9.52;;;14.00;58.60;;;;;;5054124;28;20079;-60
2021/03/29 08:57:07;;;;;;;20.30;8.45;;;14.00;58.30;;;;;;5067837;28;20040;-58
2021/03/29 08:59:33;;;;;;;18.52;8.75;;;14.10;57.30;;;;;;5049380;28;20036;-60
2021/03/29 09:02:11;;;;;;;17.20;8.68;;;14.00;56.90;;;;;;5053604;28;20021;-60
2021/03/29 09:04:50;;;;;;;18.70;9.02;;;14.00;57.50;;;;;;5060087;28;20059;-59
2021/03/29 09:07:16;;;;;;;24.10;9.65;;;14.10;57.30;;;;;;5068904;28;20136;-61
2021/03/29 09:09:44;;;;;;;25.08;9.25;;;14.00;57.20;;;;;;5035508;28;20039;-60
2021/03/29 09:12:32;;;;;;;18.85;8.82;;;14.00;57.50;;;;;;5056424;28;20029;-59
2021/03/29 09:14:59;;;;;;;16.90;8.25;;;14.00;58.00;;;;;;5073750;28;20036;-61
2021/03/29 09:17:28;;;;;;;19.80;9.02;;;14.00;57.80;;;;;;5068354;28;20045;-62
2021/03/29 09:19:54;;;;;;;14.30;8.35;;;14.20;57.30;;;;;;5053324;28;20033;-63
2021/03/29 09:22:32;;;;;;;16.35;7.82;;;14.30;58.10;;;;;;5056634;28;20112;-60
2021/03/29 09:24:58;;;;;;;22.02;9.13;;;14.20;56.80;;;;;;5067076;28;20049;-60
2021/03/29 09:27:31;;;;;;;17.98;7.78;;;14.20;57.40;;;;;;5069864;28;20056;-61
2021/03/29 09:29:57;;;;;;;16.08;7.75;;;14.30;57.20;;;;;;5053360;28;20033;-62
2021/03/29 09:32:24;;;;;;;18.83;8.60;;;14.20;56.70;;;;;;5056126;28;20049;-60
2021/03/29 09:34:52;;;;;;;18.63;8.38;;;14.30;56.80;;;;;;5071928;28;20047;-62
2021/03/29 09:37:29;;;;;;;14.05;8.15;;;14.30;56.90;;;;;;5049320;28;20040;-63
2021/03/29 09:39:57;;;;;;;21.23;8.80;;;14.60;57.00;;;;;;5072089;28;20143;-63
2021/03/29 09:42:44;;;;;;;12.73;7.95;;;14.80;56.50;;;;;;5057370;28;20041;-60
2021/03/29 09:45:31;;;;;;;21.65;9.23;;;14.80;56.50;;;;;;5041639;28;20098;-60
2021/03/29 09:48:04;;;;;;;17.13;7.70;;;14.90;55.40;;;;;;5072801;28;20025;-59
2021/03/29 09:50:40;;;;;;;16.43;7.57;;;14.80;55.90;;;;;;5053704;28;20454;-59
2021/03/29 09:53:10;;;;;;;14.20;7.22;;;14.80;56.00;;;;;;5056461;28;20037;-58
2021/03/29 09:55:44;;;;;;;21.05;8.40;;;14.70;56.00;;;;;;5058319;28;20124;-60
2021/03/29 09:58:30;;;;;;;18.90;8.57;;;14.70;56.30;;;;;;5036194;28;20040;-59
2021/03/29 10:01:04;;;;;;;15.52;7.60;;;14.80;56.60;;;;;;5053354;28;20036;-60
2021/03/29 10:03:30;;;;;;;13.15;6.50;;;14.80;56.10;;;;;;5054414;28;20036;-61
2021/03/29 10:05:56;;;;;;;15.48;7.38;;;14.70;55.60;;;;;;5040890;28;20036;-61
2021/03/29 10:08:33;;;;;;;20.40;8.07;;;14.80;55.70;;;;;;5057434;28;20079;-63
2021/03/29 10:11:07;;;;;;;16.30;7.43;;;14.90;55.90;;;;;;5035510;28;20508;-61
2021/03/29 10:13:41;;;;;;;17.60;7.63;;;15.00;56.50;;;;;;5035217;28;20051;-59
2021/03/29 10:16:17;;;;;;;17.25;7.68;;;15.10;56.10;;;;;;5055873;28;20051;-61
2021/03/29 10:18:43;;;;;;;14.60;8.13;;;15.20;56.10;;;;;;5071077;28;20055;-58
2021/03/29 10:21:08;;;;;;;14.57;7.22;;;15.40;54.50;;;;;;5071009;28;20052;-61
2021/03/29 10:23:40;;;;;;;16.13;7.30;;;15.40;54.50;;;;;;5052785;28;20043;-61
2021/03/29 10:26:20;;;;;;;14.52;6.63;;;15.40;53.40;;;;;;5036939;28;20037;-60
2021/03/29 10:28:57;;;;;;;12.77;6.28;;;15.40;52.60;;;;;;5059833;28;20029;-61
2021/03/29 10:31:24;;;;;;;12.23;6.47;;;15.50;51.80;;;;;;5052894;28;20029;-57
2021/03/29 10:33:50;;;;;;;11.93;5.82;;;15.40;51.80;;;;;;5063473;28;20055;-61
2021/03/29 10:36:16;;;;;;;14.15;6.10;;;15.50;51.30;;;;;;5061264;28;20044;-60
2021/03/29 10:38:46;;;;;;;14.88;6.53;;;15.70;51.90;;;;;;5052537;28;20512;-60
2021/03/29 10:41:12;;;;;;;11.93;6.07;;;15.90;51.10;;;;;;5045259;28;20035;-59
2021/03/29 10:43:39;;;;;;;12.43;5.90;;;16.10;50.60;;;;;;5072046;28;20025;-60
2021/03/29 10:46:05;;;;;;;11.75;6.05;;;16.10;50.60;;;;;;5066029;28;20037;-60
2021/03/29 10:48:31;;;;;;;12.40;5.78;;;16.00;50.10;;;;;;5034025;28;20168;-59
2021/03/29 10:50:59;;;;;;;11.23;5.57;;;16.20;50.00;;;;;;5058607;28;20071;-59
2021/03/29 10:53:25;;;;;;;10.43;5.35;;;16.30;49.80;;;;;;5056874;28;20055;-58
2021/03/29 10:55:51;;;;;;;13.75;6.43;;;16.50;49.20;;;;;;5065967;28;20520;-60
2021/03/29 10:58:16;;;;;;;11.32;5.50;;;16.50;48.80;;;;;;5042221;28;20035;-60
2021/03/29 11:00:42;;;;;;;15.95;6.57;;;16.30;48.30;;;;;;5054169;28;20037;-60
2021/03/29 11:03:07;;;;;;;19.02;7.00;;;16.10;49.40;;;;;;5073580;28;20491;-60
2021/03/29 11:05:34;;;;;;;10.63;5.65;;;16.30;49.80;;;;;;5052104;28;20037;-60
2021/03/29 11:08:00;;;;;;;12.88;6.07;;;16.50;49.20;;;;;;5053224;28;20611;-59
2021/03/29 11:10:25;;;;;;;13.13;6.13;;;16.50;48.50;;;;;;5052014;28;20080;-61
2021/03/29 11:12:51;;;;;;;11.82;6.47;;;16.50;49.00;;;;;;5037585;28;20043;-60
2021/03/29 11:15:17;;;;;;;15.13;5.82;;;16.60;48.70;;;;;;5052999;28;20770;-60
2021/03/29 11:17:43;;;;;;;13.82;5.90;;;16.70;48.00;;;;;;5057018;28;20029;-60
2021/03/29 11:20:08;;;;;;;13.52;5.68;;;16.50;47.50;;;;;;5051885;28;20437;-59
2021/03/29 11:22:34;;;;;;;11.75;5.85;;;16.60;46.70;;;;;;5064423;28;20083;-58
2021/03/29 11:25:00;;;;;;;12.27;5.72;;;16.50;46.90;;;;;;5062633;28;20033;-62
2021/03/29 11:27:26;;;;;;;13.68;5.82;;;16.60;47.70;;;;;;5044517;28;20127;-59
2021/03/29 11:29:51;;;;;;;11.77;5.53;;;16.80;47.20;;;;;;5071447;28;20440;-57
2021/03/29 11:32:18;;;;;;;11.43;6.20;;;16.90;46.90;;;;;;5064389;28;20040;-59
2021/03/29 11:34:44;;;;;;;16.85;6.68;;;16.90;46.30;;;;;;5076255;28;20059;-60
2021/03/29 11:37:13;;;;;;;11.27;5.78;;;17.10;46.70;;;;;;5074863;28;20044;-60
2021/03/29 11:39:41;;;;;;;16.73;6.07;;;17.10;45.60;;;;;;5049102;28;20040;-59
2021/03/29 11:42:07;;;;;;;12.18;6.18;;;17.00;45.60;;;;;;5038074;28;20021;-59
2021/03/29 11:44:33;;;;;;;11.23;6.40;;;16.90;46.50;;;;;;5061410;28;20386;-56
2021/03/29 11:46:58;;;;;;;13.20;6.00;;;17.00;46.30;;;;;;5041001;28;20032;-60
2021/03/29 11:49:24;;;;;;;16.00;6.97;;;17.10;45.70;;;;;;5071054;28;20033;-60
2021/03/29 11:51:49;;;;;;;17.88;7.18;;;17.10;46.10;;;;;;5039657;28;20078;-60
2021/03/29 11:54:15;;;;;;;11.13;6.40;;;17.10;46.10;;;;;;5057877;28;20430;-58
2021/03/29 11:56:40;;;;;;;13.90;6.75;;;17.20;46.50;;;;;;5073129;28;20044;-60
2021/03/29 11:59:07;;;;;;;15.25;6.53;;;17.30;46.10;;;;;;5068800;28;20066;-62
2021/03/29 12:01:48;;;;;;;11.80;5.70;;;17.40;46.10;;;;;;5062522;28;20037;-60
2021/03/29 12:04:24;;;;;;;11.82;6.60;;;17.50;45.30;;;;;;5040412;28;20033;-60
2021/03/29 12:07:01;;;;;;;14.80;5.95;;;17.50;45.20;;;;;;5069953;28;20037;-60
2021/03/29 12:09:32;;;;;;;12.95;5.47;;;17.50;45.20;;;;;;5074524;28;20063;-61
2021/03/29 12:12:16;;;;;;;8.85;5.68;;;17.60;44.60;;;;;;5071843;28;20040;-59
2021/03/29 12:14:41;;;;;;;14.10;6.13;;;17.70;45.00;;;;;;5055700;28;20095;-58
2021/03/29 12:17:12;;;;;;;14.40;6.22;;;17.80;45.50;;;;;;5062670;28;20120;-60
2021/03/29 12:19:39;;;;;;;10.43;6.53;;;17.90;45.00;;;;;;5055517;28;20033;-59
2021/03/29 12:22:13;;;;;;;10.63;6.50;;;17.80;44.10;;;;;;5058011;28;20123;-60
2021/03/29 12:24:42;;;;;;;11.57;6.68;;;17.70;44.60;;;;;;5051685;28;20044;-60
2021/03/29 12:27:08;;;;;;;14.43;6.55;;;17.90;45.20;;;;;;5055352;28;20041;-60
2021/03/29 12:29:39;;;;;;;12.32;6.93;;;18.00;44.80;;;;;;5057663;28;20075;-60
2021/03/29 12:32:07;;;;;;;13.35;7.03;;;18.00;44.90;;;;;;5072896;28;20103;-60
2021/03/29 12:34:34;;;;;;;14.32;6.57;;;18.00;44.60;;;;;;5071491;28;20060;-60
2021/03/29 12:37:02;;;;;;;16.45;7.05;;;17.90;44.60;;;;;;5070419;28;20029;-59
2021/03/29 12:39:38;;;;;;;13.25;6.20;;;17.90;45.00;;;;;;5055056;28;20044;-58
2021/03/29 12:42:07;;;;;;;14.45;6.38;;;17.90;45.90;;;;;;5058745;28;20036;-60
2021/03/29 12:44:34;;;;;;;14.23;6.38;;;18.10;44.80;;;;;;5054963;28;20040;-58
2021/03/29 12:47:02;;;;;;;12.82;6.55;;;18.20;44.70;;;;;;5070782;28;20120;-57
2021/03/29 12:49:28;;;;;;;17.00;6.35;;;18.40;44.10;;;;;;5061203;28;20422;-58